sensor_id;sensor_type;location;lat;lon;timestamp;P1;durP1;ratioP1;P2;durP2;ratioP2
74821;SDS011;63353;48.702;8.884;2023-07-31T00:01:58;25.67;;;24.47;;
74821;SDS011;63353;48.702;8.884;2023-07-31T00:04:30;27.80;;;26.53;;
74821;SDS011;63353;48.702;8.884;2023-07-31T00:06:58;29.93;;;28.60;;
74821;SDS011;63353;48.702;8.884;2023-07-31T00:09:24;24.77;;;23.67;;
74821;SDS011;63353;48.702;8.884;2023-07-31T00:11:56;27.17;;;25.77;;
74821;SDS011;63353;48.702;8.884;2023-07-31T00:14:21;26.67;;;25.37;;
74821;SDS011;63353;48.702;8.884;2023-07-31T00:16:50;24.80;;;23.60;;
74821;SDS011;63353;48.702;8.884;2023-07-31T00:19:16;24.17;;;22.90;;
74821;SDS011;63353;48.702;8.884;2023-07-31T00:22:02;25.37;;;24.17;;
74821;SDS011;63353;48.702;8.884;2023-07-31T00:24:31;24.73;;;23.43;;
74821;SDS011;63353;48.702;8.884;2023-07-31T00:26:59;23.73;;;22.63;;
74821;SDS011;63353;48.702;8.884;2023-07-31T00:29:25;25.03;;;23.90;;
74821;SDS011;63353;48.702;8.884;2023-07-31T00:31:51;25.13;;;23.83;;
74821;SDS011;63353;48.702;8.884;2023-07-31T00:34:19;23.70;;;22.50;;
74821;SDS011;63353;48.702;8.884;2023-07-31T00:36:45;23.50;;;22.20;;
74821;SDS011;63353;48.702;8.884;2023-07-31T00:39:22;19.93;;;18.63;;
74821;SDS011;63353;48.702;8.884;2023-07-31T00:41:51;18.67;;;17.77;;
74821;SDS011;63353;48.702;8.884;2023-07-31T00:44:25;18.10;;;16.90;;
74821;SDS011;63353;48.702;8.884;2023-07-31T00:46:57;18.00;;;17.13;;
74821;SDS011;63353;48.702;8.884;2023-07-31T00:49:29;13.30;;;12.30;;
74821;SDS011;63353;48.702;8.884;2023-07-31T00:51:54;14.40;;;13.60;;
74821;SDS011;63353;48.702;8.884;2023-07-31T00:54:22;15.83;;;14.93;;
74821;SDS011;63353;48.702;8.884;2023-07-31T00:56:53;16.60;;;15.80;;
74821;SDS011;63353;48.702;8.884;2023-07-31T00:59:19;20.27;;;19.27;;
74821;SDS011;63353;48.702;8.884;2023-07-31T01:01:51;23.83;;;22.57;;
74821;SDS011;63353;48.702;8.884;2023-07-31T01:04:23;22.93;;;21.67;;
74821;SDS011;63353;48.702;8.884;2023-07-31T01:12:06;24.33;;;23.10;;
74821;SDS011;63353;48.702;8.884;2023-07-31T01:14:38;25.93;;;24.43;;
74821;SDS011;63353;48.702;8.884;2023-07-31T01:17:04;24.67;;;23.20;;
74821;SDS011;63353;48.702;8.884;2023-07-31T01:19:33;29.17;;;27.83;;
74821;SDS011;63353;48.702;8.884;2023-07-31T01:27:20;38.23;;;36.40;;
74821;SDS011;63353;48.702;8.884;2023-07-31T01:29:56;36.83;;;35.23;;
74821;SDS011;63353;48.702;8.884;2023-07-31T01:32:42;44.37;;;42.20;;
74821;SDS011;63353;48.702;8.884;2023-07-31T01:35:14;26.90;;;25.77;;
74821;SDS011;63353;48.702;8.884;2023-07-31T01:37:43;29.83;;;28.33;;
74821;SDS011;63353;48.702;8.884;2023-07-31T01:40:15;30.87;;;29.40;;
74821;SDS011;63353;48.702;8.884;2023-07-31T01:42:46;31.90;;;30.33;;
74821;SDS011;63353;48.702;8.884;2023-07-31T01:45:12;26.80;;;25.63;;
74821;SDS011;63353;48.702;8.884;2023-07-31T01:47:43;33.23;;;31.70;;
74821;SDS011;63353;48.702;8.884;2023-07-31T01:50:09;29.20;;;27.67;;
74821;SDS011;63353;48.702;8.884;2023-07-31T01:52:40;28.97;;;27.57;;
74821;SDS011;63353;48.702;8.884;2023-07-31T01:55:06;28.63;;;27.03;;
74821;SDS011;63353;48.702;8.884;2023-07-31T01:57:32;29.30;;;28.07;;
74821;SDS011;63353;48.702;8.884;2023-07-31T02:00:00;38.03;;;36.27;;
74821;SDS011;63353;48.702;8.884;2023-07-31T02:02:26;39.83;;;37.83;;
74821;SDS011;63353;48.702;8.884;2023-07-31T02:04:51;39.77;;;37.93;;
74821;SDS011;63353;48.702;8.884;2023-07-31T02:07:20;31.43;;;29.93;;
74821;SDS011;63353;48.702;8.884;2023-07-31T02:09:45;33.97;;;32.23;;
74821;SDS011;63353;48.702;8.884;2023-07-31T02:12:22;24.37;;;23.27;;
74821;SDS011;63353;48.702;8.884;2023-07-31T02:14:53;35.00;;;33.33;;
74821;SDS011;63353;48.702;8.884;2023-07-31T02:17:25;38.73;;;36.93;;
74821;SDS011;63353;48.702;8.884;2023-07-31T02:19:51;38.83;;;36.83;;
74821;SDS011;63353;48.702;8.884;2023-07-31T02:22:16;29.87;;;28.40;;
74821;SDS011;63353;48.702;8.884;2023-07-31T02:24:45;23.70;;;22.60;;
74821;SDS011;63353;48.702;8.884;2023-07-31T02:27:20;36.13;;;34.53;;
74821;SDS011;63353;48.702;8.884;2023-07-31T02:29:58;37.40;;;35.57;;
74821;SDS011;63353;48.702;8.884;2023-07-31T02:32:24;42.80;;;41.03;;
74821;SDS011;63353;48.702;8.884;2023-07-31T02:34:59;47.60;;;45.30;;
74821;SDS011;63353;48.702;8.884;2023-07-31T02:37:24;50.90;;;48.73;;
74821;SDS011;63353;48.702;8.884;2023-07-31T02:39:50;47.30;;;45.13;;
74821;SDS011;63353;48.702;8.884;2023-07-31T02:42:16;60.63;;;58.07;;
74821;SDS011;63353;48.702;8.884;2023-07-31T02:44:48;56.80;;;54.40;;
74821;SDS011;63353;48.702;8.884;2023-07-31T02:47:16;48.97;;;46.77;;
74821;SDS011;63353;48.702;8.884;2023-07-31T02:49:41;51.23;;;49.03;;
74821;SDS011;63353;48.702;8.884;2023-07-31T02:52:07;48.17;;;46.10;;
74821;SDS011;63353;48.702;8.884;2023-07-31T02:54:33;40.33;;;38.63;;
74821;SDS011;63353;48.702;8.884;2023-07-31T02:57:14;39.33;;;37.40;;
74821;SDS011;63353;48.702;8.884;2023-07-31T02:59:41;48.70;;;46.40;;
74821;SDS011;63353;48.702;8.884;2023-07-31T03:02:09;42.07;;;40.30;;
74821;SDS011;63353;48.702;8.884;2023-07-31T03:04:39;31.23;;;29.87;;
74821;SDS011;63353;48.702;8.884;2023-07-31T03:07:04;37.53;;;35.83;;
74821;SDS011;63353;48.702;8.884;2023-07-31T03:09:42;43.03;;;41.03;;
74821;SDS011;63353;48.702;8.884;2023-07-31T03:12:08;36.17;;;34.67;;
74821;SDS011;63353;48.702;8.884;2023-07-31T03:14:34;37.70;;;36.00;;
74821;SDS011;63353;48.702;8.884;2023-07-31T03:17:09;37.07;;;35.40;;
74821;SDS011;63353;48.702;8.884;2023-07-31T03:19:34;27.63;;;26.00;;
74821;SDS011;63353;48.702;8.884;2023-07-31T03:24:50;49.70;;;47.40;;
74821;SDS011;63353;48.702;8.884;2023-07-31T03:27:16;45.53;;;43.60;;
74821;SDS011;63353;48.702;8.884;2023-07-31T03:29:45;30.13;;;28.77;;
74821;SDS011;63353;48.702;8.884;2023-07-31T03:32:16;19.60;;;18.63;;
74821;SDS011;63353;48.702;8.884;2023-07-31T03:34:45;18.03;;;17.10;;
74821;SDS011;63353;48.702;8.884;2023-07-31T03:37:20;16.70;;;15.63;;
74821;SDS011;63353;48.702;8.884;2023-07-31T03:39:45;16.40;;;15.37;;
74821;SDS011;63353;48.702;8.884;2023-07-31T03:42:11;16.70;;;15.70;;
74821;SDS011;63353;48.702;8.884;2023-07-31T03:44:37;16.97;;;15.97;;
74821;SDS011;63353;48.702;8.884;2023-07-31T03:47:08;16.80;;;15.90;;
74821;SDS011;63353;48.702;8.884;2023-07-31T03:49:37;15.87;;;15.03;;
74821;SDS011;63353;48.702;8.884;2023-07-31T03:52:03;21.60;;;20.47;;
74821;SDS011;63353;48.702;8.884;2023-07-31T03:54:29;16.80;;;15.87;;
74821;SDS011;63353;48.702;8.884;2023-07-31T03:56:54;18.30;;;17.37;;
74821;SDS011;63353;48.702;8.884;2023-07-31T03:59:23;19.07;;;17.67;;
74821;SDS011;63353;48.702;8.884;2023-07-31T04:01:48;14.60;;;13.97;;
74821;SDS011;63353;48.702;8.884;2023-07-31T04:04:14;24.03;;;22.83;;
74821;SDS011;63353;48.702;8.884;2023-07-31T04:06:40;26.40;;;25.10;;
74821;SDS011;63353;48.702;8.884;2023-07-31T04:09:05;29.63;;;28.13;;
74821;SDS011;63353;48.702;8.884;2023-07-31T04:11:31;25.27;;;23.93;;
74821;SDS011;63353;48.702;8.884;2023-07-31T04:13:57;23.40;;;22.30;;
74821;SDS011;63353;48.702;8.884;2023-07-31T04:16:23;26.70;;;25.53;;
74821;SDS011;63353;48.702;8.884;2023-07-31T04:18:51;22.90;;;21.77;;
74821;SDS011;63353;48.702;8.884;2023-07-31T04:21:17;17.90;;;17.00;;
74821;SDS011;63353;48.702;8.884;2023-07-31T04:23:43;20.00;;;18.97;;
74821;SDS011;63353;48.702;8.884;2023-07-31T04:26:17;20.40;;;19.07;;
74821;SDS011;63353;48.702;8.884;2023-07-31T04:28:43;20.00;;;19.00;;
74821;SDS011;63353;48.702;8.884;2023-07-31T04:31:09;27.13;;;25.67;;
74821;SDS011;63353;48.702;8.884;2023-07-31T04:33:37;31.20;;;29.60;;
74821;SDS011;63353;48.702;8.884;2023-07-31T04:36:06;29.07;;;27.67;;
74821;SDS011;63353;48.702;8.884;2023-07-31T04:38:31;19.37;;;18.33;;
74821;SDS011;63353;48.702;8.884;2023-07-31T04:40:57;19.73;;;18.73;;
74821;SDS011;63353;48.702;8.884;2023-07-31T04:43:23;21.23;;;20.00;;
74821;SDS011;63353;48.702;8.884;2023-07-31T04:45:51;23.70;;;22.60;;
74821;SDS011;63353;48.702;8.884;2023-07-31T04:48:21;20.30;;;19.27;;
74821;SDS011;63353;48.702;8.884;2023-07-31T04:50:47;19.00;;;18.13;;
74821;SDS011;63353;48.702;8.884;2023-07-31T04:53:13;19.93;;;18.83;;
74821;SDS011;63353;48.702;8.884;2023-07-31T04:55:38;25.80;;;24.50;;
74821;SDS011;63353;48.702;8.884;2023-07-31T04:58:04;20.60;;;19.57;;
74821;SDS011;63353;48.702;8.884;2023-07-31T05:00:30;28.40;;;26.90;;
74821;SDS011;63353;48.702;8.884;2023-07-31T05:02:56;27.50;;;26.03;;
74821;SDS011;63353;48.702;8.884;2023-07-31T05:05:21;19.33;;;18.30;;
74821;SDS011;63353;48.702;8.884;2023-07-31T05:07:47;23.03;;;21.97;;
74821;SDS011;63353;48.702;8.884;2023-07-31T05:10:13;21.73;;;20.33;;
74821;SDS011;63353;48.702;8.884;2023-07-31T05:12:38;25.87;;;24.73;;
74821;SDS011;63353;48.702;8.884;2023-07-31T05:15:04;28.33;;;26.97;;
74821;SDS011;63353;48.702;8.884;2023-07-31T05:17:30;26.10;;;24.63;;
74821;SDS011;63353;48.702;8.884;2023-07-31T05:19:56;28.53;;;27.27;;
74821;SDS011;63353;48.702;8.884;2023-07-31T05:22:22;26.10;;;24.90;;
74821;SDS011;63353;48.702;8.884;2023-07-31T05:24:48;30.70;;;29.20;;
74821;SDS011;63353;48.702;8.884;2023-07-31T05:27:17;31.73;;;30.13;;
74821;SDS011;63353;48.702;8.884;2023-07-31T05:29:45;28.10;;;26.80;;
74821;SDS011;63353;48.702;8.884;2023-07-31T05:32:14;28.80;;;27.50;;
74821;SDS011;63353;48.702;8.884;2023-07-31T05:34:39;23.97;;;22.83;;
74821;SDS011;63353;48.702;8.884;2023-07-31T05:37:05;27.37;;;25.97;;
74821;SDS011;63353;48.702;8.884;2023-07-31T05:39:33;33.73;;;32.20;;
74821;SDS011;63353;48.702;8.884;2023-07-31T05:41:58;30.63;;;29.00;;
74821;SDS011;63353;48.702;8.884;2023-07-31T05:44:24;39.00;;;37.30;;
74821;SDS011;63353;48.702;8.884;2023-07-31T05:46:50;34.63;;;33.00;;
74821;SDS011;63353;48.702;8.884;2023-07-31T05:49:15;31.67;;;30.27;;
74821;SDS011;63353;48.702;8.884;2023-07-31T05:51:44;38.93;;;37.10;;
74821;SDS011;63353;48.702;8.884;2023-07-31T05:54:10;30.80;;;29.27;;
74821;SDS011;63353;48.702;8.884;2023-07-31T05:56:35;18.53;;;17.50;;
74821;SDS011;63353;48.702;8.884;2023-07-31T05:59:01;23.77;;;22.60;;
74821;SDS011;63353;48.702;8.884;2023-07-31T06:01:27;27.23;;;26.00;;
74821;SDS011;63353;48.702;8.884;2023-07-31T06:03:56;25.40;;;24.17;;
74821;SDS011;63353;48.702;8.884;2023-07-31T06:06:22;28.73;;;27.33;;
74821;SDS011;63353;48.702;8.884;2023-07-31T06:08:47;18.87;;;17.93;;
74821;SDS011;63353;48.702;8.884;2023-07-31T06:11:13;18.43;;;17.53;;
74821;SDS011;63353;48.702;8.884;2023-07-31T06:13:44;15.93;;;15.13;;
74821;SDS011;63353;48.702;8.884;2023-07-31T06:16:17;15.33;;;14.43;;
74821;SDS011;63353;48.702;8.884;2023-07-31T06:18:55;14.67;;;13.80;;
74821;SDS011;63353;48.702;8.884;2023-07-31T06:21:24;13.33;;;12.53;;
74821;SDS011;63353;48.702;8.884;2023-07-31T06:23:56;9.27;;;8.73;;
74821;SDS011;63353;48.702;8.884;2023-07-31T06:26:34;7.67;;;7.37;;
74821;SDS011;63353;48.702;8.884;2023-07-31T06:29:04;9.90;;;9.27;;
74821;SDS011;63353;48.702;8.884;2023-07-31T06:31:33;7.93;;;7.20;;
74821;SDS011;63353;48.702;8.884;2023-07-31T06:34:05;14.27;;;13.43;;
74821;SDS011;63353;48.702;8.884;2023-07-31T06:36:51;9.50;;;8.90;;
74821;SDS011;63353;48.702;8.884;2023-07-31T06:39:23;13.83;;;13.13;;
74821;SDS011;63353;48.702;8.884;2023-07-31T06:41:51;14.83;;;14.13;;
74821;SDS011;63353;48.702;8.884;2023-07-31T06:44:30;15.33;;;14.53;;
74821;SDS011;63353;48.702;8.884;2023-07-31T06:46:56;18.40;;;17.43;;
74821;SDS011;63353;48.702;8.884;2023-07-31T06:49:27;15.90;;;15.00;;
74821;SDS011;63353;48.702;8.884;2023-07-31T06:51:56;15.47;;;14.73;;
74821;SDS011;63353;48.702;8.884;2023-07-31T06:54:25;19.00;;;17.90;;
74821;SDS011;63353;48.702;8.884;2023-07-31T06:56:56;10.47;;;9.87;;
74821;SDS011;63353;48.702;8.884;2023-07-31T06:59:22;16.63;;;15.77;;
74821;SDS011;63353;48.702;8.884;2023-07-31T07:01:51;10.90;;;10.10;;
74821;SDS011;63353;48.702;8.884;2023-07-31T07:04:16;16.30;;;15.50;;
74821;SDS011;63353;48.702;8.884;2023-07-31T07:06:45;8.60;;;8.07;;
74821;SDS011;63353;48.702;8.884;2023-07-31T07:09:13;10.63;;;9.83;;
74821;SDS011;63353;48.702;8.884;2023-07-31T07:11:43;8.30;;;7.60;;
74821;SDS011;63353;48.702;8.884;2023-07-31T07:14:14;9.63;;;8.97;;
74821;SDS011;63353;48.702;8.884;2023-07-31T07:16:55;17.80;;;16.90;;
74821;SDS011;63353;48.702;8.884;2023-07-31T07:19:24;12.60;;;11.87;;
74821;SDS011;63353;48.702;8.884;2023-07-31T07:21:55;15.73;;;14.87;;
74821;SDS011;63353;48.702;8.884;2023-07-31T07:24:21;28.93;;;27.47;;
74821;SDS011;63353;48.702;8.884;2023-07-31T07:26:55;34.60;;;33.10;;
74821;SDS011;63353;48.702;8.884;2023-07-31T07:29:27;33.80;;;32.40;;
74821;SDS011;63353;48.702;8.884;2023-07-31T07:31:52;41.67;;;39.80;;
74821;SDS011;63353;48.702;8.884;2023-07-31T07:34:18;33.70;;;32.13;;
74821;SDS011;63353;48.702;8.884;2023-07-31T07:36:53;31.53;;;30.13;;
74821;SDS011;63353;48.702;8.884;2023-07-31T07:39:25;32.00;;;30.33;;
74821;SDS011;63353;48.702;8.884;2023-07-31T07:41:51;41.67;;;39.70;;
74821;SDS011;63353;48.702;8.884;2023-07-31T07:44:20;36.10;;;34.50;;
74821;SDS011;63353;48.702;8.884;2023-07-31T07:46:57;43.17;;;41.37;;
74821;SDS011;63353;48.702;8.884;2023-07-31T07:49:23;34.93;;;33.37;;
74821;SDS011;63353;48.702;8.884;2023-07-31T07:51:52;34.97;;;33.43;;
74821;SDS011;63353;48.702;8.884;2023-07-31T07:54:26;21.80;;;20.70;;
74821;SDS011;63353;48.702;8.884;2023-07-31T07:56:55;35.43;;;33.67;;
74821;SDS011;63353;48.702;8.884;2023-07-31T07:59:27;33.10;;;31.57;;
74821;SDS011;63353;48.702;8.884;2023-07-31T08:01:53;38.13;;;36.33;;
74821;SDS011;63353;48.702;8.884;2023-07-31T08:04:24;40.20;;;38.40;;
74821;SDS011;63353;48.702;8.884;2023-07-31T08:06:53;41.47;;;39.57;;
74821;SDS011;63353;48.702;8.884;2023-07-31T08:09:18;44.83;;;42.83;;
74821;SDS011;63353;48.702;8.884;2023-07-31T08:11:56;37.00;;;35.40;;
74821;SDS011;63353;48.702;8.884;2023-07-31T08:14:27;41.57;;;39.63;;
74821;SDS011;63353;48.702;8.884;2023-07-31T08:16:56;34.03;;;32.43;;
74821;SDS011;63353;48.702;8.884;2023-07-31T08:19:22;35.70;;;34.03;;
74821;SDS011;63353;48.702;8.884;2023-07-31T08:21:47;31.60;;;30.20;;
74821;SDS011;63353;48.702;8.884;2023-07-31T08:24:19;31.40;;;30.00;;
74821;SDS011;63353;48.702;8.884;2023-07-31T08:26:47;32.13;;;30.73;;
74821;SDS011;63353;48.702;8.884;2023-07-31T08:29:16;41.20;;;39.43;;
74821;SDS011;63353;48.702;8.884;2023-07-31T08:31:42;35.53;;;33.93;;
74821;SDS011;63353;48.702;8.884;2023-07-31T08:34:07;33.37;;;31.70;;
74821;SDS011;63353;48.702;8.884;2023-07-31T08:36:33;32.50;;;30.63;;
74821;SDS011;63353;48.702;8.884;2023-07-31T08:38:59;33.53;;;32.03;;
74821;SDS011;63353;48.702;8.884;2023-07-31T08:41:27;36.27;;;34.67;;
74821;SDS011;63353;48.702;8.884;2023-07-31T08:43:56;31.30;;;29.90;;
74821;SDS011;63353;48.702;8.884;2023-07-31T08:46:22;35.00;;;33.40;;
74821;SDS011;63353;48.702;8.884;2023-07-31T08:48:52;29.10;;;27.77;;
74821;SDS011;63353;48.702;8.884;2023-07-31T08:51:19;32.93;;;31.33;;
74821;SDS011;63353;48.702;8.884;2023-07-31T08:53:52;46.57;;;44.47;;
74821;SDS011;63353;48.702;8.884;2023-07-31T08:56:18;33.70;;;31.90;;
74821;SDS011;63353;48.702;8.884;2023-07-31T08:58:44;33.27;;;31.57;;
74821;SDS011;63353;48.702;8.884;2023-07-31T09:01:15;32.47;;;30.87;;
74821;SDS011;63353;48.702;8.884;2023-07-31T09:03:41;37.77;;;36.03;;
74821;SDS011;63353;48.702;8.884;2023-07-31T09:06:09;35.90;;;34.07;;
74821;SDS011;63353;48.702;8.884;2023-07-31T09:08:35;37.60;;;35.83;;
74821;SDS011;63353;48.702;8.884;2023-07-31T09:11:17;33.37;;;31.63;;
74821;SDS011;63353;48.702;8.884;2023-07-31T09:13:46;36.47;;;34.67;;
74821;SDS011;63353;48.702;8.884;2023-07-31T09:16:26;34.70;;;32.93;;
74821;SDS011;63353;48.702;8.884;2023-07-31T09:18:55;35.13;;;33.50;;
74821;SDS011;63353;48.702;8.884;2023-07-31T09:21:24;37.80;;;36.00;;
74821;SDS011;63353;48.702;8.884;2023-07-31T09:26:59;32.43;;;30.83;;
74821;SDS011;63353;48.702;8.884;2023-07-31T09:29:29;34.30;;;32.50;;
74821;SDS011;63353;48.702;8.884;2023-07-31T09:31:55;32.03;;;30.63;;
74821;SDS011;63353;48.702;8.884;2023-07-31T09:34:30;33.63;;;32.10;;
74821;SDS011;63353;48.702;8.884;2023-07-31T09:37:05;34.90;;;33.40;;
74821;SDS011;63353;48.702;8.884;2023-07-31T09:39:31;28.03;;;26.67;;
74821;SDS011;63353;48.702;8.884;2023-07-31T09:41:57;28.43;;;26.93;;
74821;SDS011;63353;48.702;8.884;2023-07-31T09:44:38;25.03;;;23.77;;
74821;SDS011;63353;48.702;8.884;2023-07-31T09:47:05;17.17;;;16.17;;
74821;SDS011;63353;48.702;8.884;2023-07-31T09:49:31;19.47;;;18.40;;
74821;SDS011;63353;48.702;8.884;2023-07-31T09:51:57;17.77;;;16.87;;
74821;SDS011;63353;48.702;8.884;2023-07-31T09:54:22;18.50;;;17.50;;
74821;SDS011;63353;48.702;8.884;2023-07-31T09:56:54;18.00;;;17.10;;
74821;SDS011;63353;48.702;8.884;2023-07-31T09:59:22;15.97;;;15.23;;
74821;SDS011;63353;48.702;8.884;2023-07-31T10:01:48;17.73;;;16.73;;
74821;SDS011;63353;48.702;8.884;2023-07-31T10:04:21;21.37;;;20.27;;
74821;SDS011;63353;48.702;8.884;2023-07-31T10:06:52;23.00;;;21.77;;
74821;SDS011;63353;48.702;8.884;2023-07-31T10:09:22;16.30;;;15.50;;
74821;SDS011;63353;48.702;8.884;2023-07-31T10:11:53;14.50;;;13.50;;
74821;SDS011;63353;48.702;8.884;2023-07-31T10:14:26;16.67;;;15.87;;
74821;SDS011;63353;48.702;8.884;2023-07-31T10:16:53;15.57;;;14.63;;
74821;SDS011;63353;48.702;8.884;2023-07-31T10:19:20;15.10;;;14.30;;
74821;SDS011;63353;48.702;8.884;2023-07-31T10:21:46;26.60;;;25.40;;
74821;SDS011;63353;48.702;8.884;2023-07-31T10:24:21;20.53;;;19.60;;
74821;SDS011;63353;48.702;8.884;2023-07-31T10:26:51;11.03;;;10.27;;
74821;SDS011;63353;48.702;8.884;2023-07-31T10:29:17;18.20;;;17.10;;
74821;SDS011;63353;48.702;8.884;2023-07-31T10:31:45;17.50;;;16.60;;
74821;SDS011;63353;48.702;8.884;2023-07-31T10:34:12;14.27;;;13.47;;
74821;SDS011;63353;48.702;8.884;2023-07-31T10:36:38;13.83;;;12.97;;
74821;SDS011;63353;48.702;8.884;2023-07-31T10:39:04;13.10;;;12.07;;
74821;SDS011;63353;48.702;8.884;2023-07-31T10:41:57;12.37;;;11.67;;
74821;SDS011;63353;48.702;8.884;2023-07-31T10:44:22;14.90;;;14.00;;
74821;SDS011;63353;48.702;8.884;2023-07-31T10:46:54;18.83;;;17.83;;
74821;SDS011;63353;48.702;8.884;2023-07-31T10:49:23;15.80;;;14.90;;
74821;SDS011;63353;48.702;8.884;2023-07-31T10:51:57;11.80;;;11.00;;
74821;SDS011;63353;48.702;8.884;2023-07-31T10:54:38;15.27;;;14.27;;
74821;SDS011;63353;48.702;8.884;2023-07-31T10:57:22;9.80;;;9.17;;
74821;SDS011;63353;48.702;8.884;2023-07-31T10:59:52;9.20;;;8.70;;
74821;SDS011;63353;48.702;8.884;2023-07-31T11:05:50;8.20;;;7.67;;
74821;SDS011;63353;48.702;8.884;2023-07-31T11:11:25;9.03;;;8.13;;
74821;SDS011;63353;48.702;8.884;2023-07-31T11:13:52;8.13;;;7.63;;
74821;SDS011;63353;48.702;8.884;2023-07-31T11:16:24;11.50;;;10.80;;
74821;SDS011;63353;48.702;8.884;2023-07-31T11:18:51;9.57;;;8.80;;
74821;SDS011;63353;48.702;8.884;2023-07-31T11:21:30;9.90;;;9.30;;
74821;SDS011;63353;48.702;8.884;2023-07-31T11:23:56;10.13;;;9.47;;
74821;SDS011;63353;48.702;8.884;2023-07-31T11:26:25;9.53;;;8.73;;
74821;SDS011;63353;48.702;8.884;2023-07-31T11:31:47;8.30;;;6.70;;
74821;SDS011;63353;48.702;8.884;2023-07-31T11:34:19;8.13;;;7.50;;
74821;SDS011;63353;48.702;8.884;2023-07-31T11:36:57;8.80;;;8.13;;
74821;SDS011;63353;48.702;8.884;2023-07-31T11:39:26;8.60;;;8.00;;
74821;SDS011;63353;48.702;8.884;2023-07-31T11:42:01;10.53;;;9.83;;
74821;SDS011;63353;48.702;8.884;2023-07-31T11:44:45;8.33;;;7.73;;
74821;SDS011;63353;48.702;8.884;2023-07-31T11:47:13;11.43;;;10.63;;
74821;SDS011;63353;48.702;8.884;2023-07-31T11:49:47;9.80;;;9.00;;
74821;SDS011;63353;48.702;8.884;2023-07-31T11:52:14;9.73;;;8.83;;
74821;SDS011;63353;48.702;8.884;2023-07-31T11:54:41;9.57;;;8.70;;
74821;SDS011;63353;48.702;8.884;2023-07-31T11:57:16;11.80;;;10.93;;
74821;SDS011;63353;48.702;8.884;2023-07-31T11:59:46;14.17;;;13.33;;
74821;SDS011;63353;48.702;8.884;2023-07-31T12:02:20;12.00;;;11.30;;
74821;SDS011;63353;48.702;8.884;2023-07-31T12:04:47;10.50;;;9.90;;
74821;SDS011;63353;48.702;8.884;2023-07-31T12:07:19;9.00;;;8.30;;
74821;SDS011;63353;48.702;8.884;2023-07-31T12:09:54;8.87;;;8.17;;
74821;SDS011;63353;48.702;8.884;2023-07-31T12:12:20;7.97;;;7.47;;
74821;SDS011;63353;48.702;8.884;2023-07-31T12:14:54;10.93;;;9.97;;
74821;SDS011;63353;48.702;8.884;2023-07-31T12:17:20;14.60;;;13.80;;
74821;SDS011;63353;48.702;8.884;2023-07-31T12:19:52;12.13;;;11.43;;
74821;SDS011;63353;48.702;8.884;2023-07-31T12:22:17;17.90;;;16.93;;
74821;SDS011;63353;48.702;8.884;2023-07-31T12:24:46;16.67;;;15.77;;
74821;SDS011;63353;48.702;8.884;2023-07-31T12:27:12;18.93;;;17.93;;
74821;SDS011;63353;48.702;8.884;2023-07-31T12:29:41;15.80;;;14.90;;
74821;SDS011;63353;48.702;8.884;2023-07-31T12:32:22;16.17;;;15.37;;
74821;SDS011;63353;48.702;8.884;2023-07-31T12:34:49;16.83;;;16.03;;
74821;SDS011;63353;48.702;8.884;2023-07-31T12:37:16;13.57;;;12.77;;
74821;SDS011;63353;48.702;8.884;2023-07-31T12:39:42;14.70;;;14.07;;
74821;SDS011;63353;48.702;8.884;2023-07-31T12:42:07;14.10;;;13.33;;
74821;SDS011;63353;48.702;8.884;2023-07-31T12:44:33;13.47;;;12.60;;
74821;SDS011;63353;48.702;8.884;2023-07-31T12:46:59;7.83;;;7.33;;
74821;SDS011;63353;48.702;8.884;2023-07-31T12:49:24;7.93;;;7.27;;
74821;SDS011;63353;48.702;8.884;2023-07-31T12:51:53;8.80;;;8.10;;
74821;SDS011;63353;48.702;8.884;2023-07-31T12:54:19;8.63;;;7.80;;
74821;SDS011;63353;48.702;8.884;2023-07-31T12:56:44;7.60;;;7.10;;
74821;SDS011;63353;48.702;8.884;2023-07-31T12:59:10;9.70;;;9.10;;
74821;SDS011;63353;48.702;8.884;2023-07-31T13:01:35;9.13;;;8.63;;
74821;SDS011;63353;48.702;8.884;2023-07-31T13:04:01;7.47;;;6.97;;
74821;SDS011;63353;48.702;8.884;2023-07-31T13:06:27;6.57;;;6.27;;
74821;SDS011;63353;48.702;8.884;2023-07-31T13:08:55;7.50;;;6.80;;
74821;SDS011;63353;48.702;8.884;2023-07-31T13:11:21;7.03;;;6.53;;
74821;SDS011;63353;48.702;8.884;2023-07-31T13:13:47;8.17;;;7.07;;
74821;SDS011;63353;48.702;8.884;2023-07-31T13:16:13;6.60;;;6.30;;
74821;SDS011;63353;48.702;8.884;2023-07-31T13:18:38;7.10;;;6.53;;
74821;SDS011;63353;48.702;8.884;2023-07-31T13:21:04;7.03;;;6.57;;
74821;SDS011;63353;48.702;8.884;2023-07-31T13:23:29;7.17;;;6.60;;
74821;SDS011;63353;48.702;8.884;2023-07-31T13:25:55;7.20;;;6.80;;
74821;SDS011;63353;48.702;8.884;2023-07-31T13:28:21;7.20;;;6.50;;
74821;SDS011;63353;48.702;8.884;2023-07-31T13:30:46;7.20;;;6.70;;
74821;SDS011;63353;48.702;8.884;2023-07-31T13:33:12;6.97;;;6.50;;
74821;SDS011;63353;48.702;8.884;2023-07-31T13:35:38;7.57;;;7.07;;
74821;SDS011;63353;48.702;8.884;2023-07-31T13:38:03;6.97;;;6.37;;
74821;SDS011;63353;48.702;8.884;2023-07-31T13:40:30;6.90;;;6.40;;
74821;SDS011;63353;48.702;8.884;2023-07-31T13:42:56;7.17;;;6.57;;
74821;SDS011;63353;48.702;8.884;2023-07-31T13:45:22;7.03;;;6.30;;
74821;SDS011;63353;48.702;8.884;2023-07-31T13:47:49;8.53;;;6.60;;
74821;SDS011;63353;48.702;8.884;2023-07-31T13:50:16;7.17;;;6.77;;
74821;SDS011;63353;48.702;8.884;2023-07-31T13:52:44;7.00;;;6.37;;
74821;SDS011;63353;48.702;8.884;2023-07-31T13:55:10;7.00;;;6.50;;
74821;SDS011;63353;48.702;8.884;2023-07-31T13:57:35;7.27;;;6.80;;
74821;SDS011;63353;48.702;8.884;2023-07-31T14:00:01;7.30;;;6.70;;
74821;SDS011;63353;48.702;8.884;2023-07-31T14:02:27;7.47;;;6.87;;
74821;SDS011;63353;48.702;8.884;2023-07-31T14:04:53;7.93;;;7.23;;
74821;SDS011;63353;48.702;8.884;2023-07-31T14:07:19;7.60;;;6.90;;
74821;SDS011;63353;48.702;8.884;2023-07-31T14:09:47;7.07;;;6.57;;
74821;SDS011;63353;48.702;8.884;2023-07-31T14:12:13;7.40;;;6.90;;
74821;SDS011;63353;48.702;8.884;2023-07-31T14:14:39;7.00;;;6.50;;
74821;SDS011;63353;48.702;8.884;2023-07-31T14:17:14;6.73;;;6.23;;
74821;SDS011;63353;48.702;8.884;2023-07-31T14:19:45;7.40;;;7.00;;
74821;SDS011;63353;48.702;8.884;2023-07-31T14:22:11;6.77;;;6.27;;
74821;SDS011;63353;48.702;8.884;2023-07-31T14:24:37;6.87;;;6.37;;
74821;SDS011;63353;48.702;8.884;2023-07-31T14:27:03;7.20;;;6.70;;
74821;SDS011;63353;48.702;8.884;2023-07-31T14:29:29;7.40;;;6.77;;
74821;SDS011;63353;48.702;8.884;2023-07-31T14:31:58;6.53;;;6.13;;
74821;SDS011;63353;48.702;8.884;2023-07-31T14:34:27;7.13;;;6.63;;
74821;SDS011;63353;48.702;8.884;2023-07-31T14:36:56;7.13;;;6.60;;
74821;SDS011;63353;48.702;8.884;2023-07-31T14:39:22;7.20;;;6.80;;
74821;SDS011;63353;48.702;8.884;2023-07-31T14:41:48;7.43;;;6.83;;
74821;SDS011;63353;48.702;8.884;2023-07-31T14:44:14;7.47;;;6.93;;
74821;SDS011;63353;48.702;8.884;2023-07-31T14:46:40;8.63;;;8.13;;
74821;SDS011;63353;48.702;8.884;2023-07-31T14:49:05;6.77;;;6.37;;
74821;SDS011;63353;48.702;8.884;2023-07-31T14:51:31;6.83;;;6.33;;
74821;SDS011;63353;48.702;8.884;2023-07-31T14:53:56;6.83;;;6.33;;
74821;SDS011;63353;48.702;8.884;2023-07-31T14:56:22;6.50;;;6.03;;
74821;SDS011;63353;48.702;8.884;2023-07-31T14:59:03;7.23;;;6.77;;
74821;SDS011;63353;48.702;8.884;2023-07-31T15:01:28;7.77;;;7.17;;
74821;SDS011;63353;48.702;8.884;2023-07-31T15:04:06;7.13;;;6.63;;